ADDS METAR Data INFO
IDs: Format: Raw Decoded Include TAF

Data at: 1247 UTC 19 Oct 2017

KRMY 191234Z AUTO 23006KT 10SM CLR 11/08 A3008 RMK AO2 T01110075
KRMY 191214Z AUTO 23006KT 10SM CLR 11/07 A3008 RMK AO2 T01070074
KRMY 191153Z AUTO 24006KT 10SM CLR 11/07 A3007 RMK AO2 T01100073 10121 20107
KRMY 191134Z AUTO 23006KT 10SM CLR 11/07 A3006 RMK AO2 T01100072
KRMY 191114Z AUTO 23006KT 10SM CLR 11/07 A3006 RMK AO2 T01100072
KRMY 191053Z AUTO 23005KT 10SM CLR 11/07 A3006 RMK AO2 T01070071
KRMY 191034Z AUTO 23005KT 10SM CLR 11/07 A3005 RMK AO2 T01080070
KRMY 191014Z AUTO 21005KT 10SM CLR 11/07 A3005 RMK AO2 T01100068
KRMY 190953Z AUTO 22005KT 10SM CLR 11/07 A3005 RMK AO2 T01110068
KRMY 190934Z AUTO 22006KT 10SM CLR 11/07 A3005 RMK AO2 T01100067
KRMY 190914Z AUTO 22004KT 10SM CLR 11/07 A3004 RMK AO2 T01110066
KRMY 190853Z AUTO 22007KT 10SM CLR 11/07 A3005 RMK AO2 T01120065
KRMY 190834Z AUTO 21006KT 10SM CLR 11/07 A3004 RMK AO2 T01140065
KRMY 190814Z AUTO 21006KT 10SM CLR 12/06 A3004 RMK AO2 T01150064
KRMY 190753Z AUTO 20007KT 10SM CLR 12/06 A3005 RMK AO2 T01170063
KRMY 190734Z AUTO 21006KT 10SM CLR 12/06 A3006 RMK AO2 T01180062
KRMY 190714Z AUTO 21006KT 10SM CLR 12/06 A3006 RMK AO2 T01200061
KRMY 190653Z AUTO 21005KT 10SM CLR 12/06 A3006 RMK AO2 T01200061
KRMY 190634Z AUTO 20005KT 10SM CLR 12/06 A3006 RMK AO2 T01200060
KRMY 190614Z AUTO 20006KT 10SM CLR 12/06 A3007 RMK AO2 T01210059
KRMY 190553Z AUTO 21005KT 10SM CLR 12/06 A3007 RMK AO2 T01220058 10146 20121 401990080
KRMY 190534Z AUTO 21005KT 10SM CLR 12/06 A3008 RMK AO2 T01220056
KRMY 190514Z AUTO 21007KT 10SM CLR 12/06 A3008 RMK AO2 T01240055
KRMY 190453Z AUTO 21004KT 10SM CLR 12/05 A3008 RMK AO2 T01220053
KRMY 190434Z AUTO 21005KT 10SM CLR 13/05 A3009 RMK AO2 T01260051
KRMY 190414Z AUTO 19005KT 10SM CLR 13/05 A3009 RMK AO2 T01260050
KRMY 190353Z AUTO 21004KT 10SM CLR 13/05 A3010 RMK AO2 T01290047
KRMY 190334Z AUTO 20006KT 10SM CLR 13/05 A3009 RMK AO2 T01300045
KRMY 190314Z AUTO 20004KT 10SM CLR 14/04 A3009 RMK AO2 T01350042
KRMY 190253Z AUTO 19006KT 10SM CLR 14/04 A3009 RMK AO2 T01370040
KRMY 190234Z AUTO 20006KT 10SM CLR 14/04 A3009 RMK AO2 T01390038
KRMY 190214Z AUTO 19007KT 10SM CLR 14/04 A3009 RMK AO2 T01400035
KRMY 190153Z AUTO 20006KT 10SM CLR 14/04 A3009 RMK AO2 T01420035
KRMY 190134Z AUTO 19005KT 10SM CLR 14/04 A3009 RMK AO2 T01430035
KRMY 190113Z AUTO 19005KT 10SM CLR 14/04 A3008 RMK AO2 T01410035
KRMY 190054Z AUTO 19005KT 10SM CLR 14/04 A3008 RMK AO2 T01400036
KRMY 190034Z AUTO 19006KT 10SM CLR 14/04 A3009 RMK AO2 T01420035
KRMY 190013Z AUTO 18005KT 10SM CLR 14/04 A3008 RMK AO2 T01420037
KRMY 182354Z AUTO 18005KT 10SM CLR 14/04 A3008 RMK AO2 T01440037 10199 20144
KRMY 182334Z AUTO 18005KT 10SM CLR 15/04 A3008 RMK AO2 T01490037
KRMY 182313Z AUTO 18004KT 10SM CLR 16/04 A3009 RMK AO2 T01550036
KRMY 182254Z AUTO 19006KT 10SM CLR 17/03 A3009 RMK AO2 T01650032
KRMY 182234Z AUTO 19007KT 10SM CLR 18/03 A3009 RMK AO2 T01760030
KRMY 182213Z AUTO 19008KT 10SM CLR 18/03 A3009 RMK AO2 T01820026
KRMY 182154Z AUTO 19009KT 10SM CLR 19/03 A3009 RMK AO2 T01870026
KRMY 182134Z AUTO 20007G17KT 10SM CLR 19/02 A3009 RMK AO2 T01920018
KRMY 182113Z AUTO 19008KT 10SM CLR 20/02 A3010 RMK AO2 T01950023
KRMY 182054Z AUTO 18011G16KT 10SM CLR 20/02 A3011 RMK AO2 T01960020
KRMY 182034Z AUTO 20012G18KT 10SM CLR 20/02 A3011 RMK AO2 T01980015
KRMY 182013Z AUTO 20010G18KT 10SM CLR 20/02 A3012 RMK AO2 T01980023
KRMY 181954Z AUTO 19009G17KT 10SM CLR 20/03 A3012 RMK AO2 T01960029
KRMY 181933Z AUTO 19012G18KT 10SM CLR 20/03 A3013 RMK AO2 T01960025
KRMY 181913Z AUTO 19009G15KT 10SM CLR 20/04 A3013 RMK AO2 T01950042
KRMY 181854Z AUTO 20013G19KT 10SM CLR 20/03 A3014 RMK AO2 T01950034
KRMY 181833Z AUTO 21010G15KT 10SM CLR 19/04 A3014 RMK AO2 T01900039
KRMY 181813Z AUTO 19014G20KT 10SM CLR 19/04 A3015 RMK AO2 T01910044
KRMY 181754Z AUTO 19011G16KT 10SM CLR 19/05 A3016 RMK AO2 T01870047 10188 20080
KRMY 181733Z AUTO 22010G16KT 10SM CLR 18/04 A3017 RMK AO2 T01820041
KRMY 181714Z AUTO 21009KT 180V250 10SM CLR 18/05 A3018 RMK AO2 T01810050
KRMY 181654Z AUTO 19011G15KT 10SM CLR 18/05 A3019 RMK AO2 T01750048
KRMY 181633Z AUTO 22012G17KT 10SM CLR 17/05 A3021 RMK AO2 T01700048
KRMY 181614Z AUTO 20011G15KT 10SM CLR 17/06 A3021 RMK AO2 T01700057
KRMY 181554Z AUTO 23013G16KT 10SM CLR 16/06 A3021 RMK AO2 T01600055
KRMY 181533Z AUTO 22012G16KT 10SM CLR 16/06 A3022 RMK AO2 T01550055
KRMY 181514Z AUTO 24010KT 10SM CLR 15/06 A3022 RMK AO2 T01490058
KRMY 181453Z AUTO 21006KT 10SM CLR 14/06 A3023 RMK AO2 T01400056
KRMY 181434Z AUTO 21008KT 10SM CLR 13/05 A3022 RMK AO2 T01330053
KRMY 181414Z AUTO 22009KT 10SM CLR 13/05 A3022 RMK AO2 T01270049
KRMY 181353Z AUTO 22007KT 10SM CLR 12/05 A3022 RMK AO2 T01180049
KRMY 181334Z AUTO 20006KT 10SM CLR 11/05 A3022 RMK AO2 T01100047
KRMY 181314Z AUTO 19005KT 10SM CLR 10/05 A3022 RMK AO2 T01000045
KRMY 181253Z AUTO 20005KT 10SM CLR 09/04 A3022 RMK AO2 T00910043
KRMY 181234Z AUTO 20004KT 10SM CLR 09/04 A3021 RMK AO2 T00860040
KRMY 181214Z AUTO 20003KT 10SM CLR 08/04 A3021 RMK AO2 T00810038
KRMY 181153Z AUTO 20003KT 10SM CLR 08/04 A3021 RMK AO2 T00810038 10115 20081
KRMY 181134Z AUTO 00000KT 10SM CLR 08/04 A3022 RMK AO2 T00810039
KRMY 181114Z AUTO 19004KT 10SM CLR 08/04 A3022 RMK AO2 T00810039
KRMY 181053Z AUTO 20003KT 10SM CLR 08/04 A3023 RMK AO2 T00810039
KRMY 181034Z AUTO 19003KT 10SM CLR 08/04 A3022 RMK AO2 T00840039
KRMY 181014Z AUTO 21004KT 10SM CLR 09/04 A3022 RMK AO2 T00860040
KRMY 180953Z AUTO 21005KT 10SM CLR 09/04 A3021 RMK AO2 T00900040
KRMY 180934Z AUTO 21004KT 10SM CLR 09/04 A3021 RMK AO2 T00870040
KRMY 180914Z AUTO 20003KT 10SM CLR 09/04 A3021 RMK AO2 T00900040
KRMY 180853Z AUTO 21004KT 10SM CLR 09/04 A3021 RMK AO2 T00900040
KRMY 180834Z AUTO 20003KT 10SM CLR 09/04 A3021 RMK AO2 T00900039
KRMY 180814Z AUTO 20003KT 10SM CLR 09/04 A3020 RMK AO2 T00940040
KRMY 180753Z AUTO 21003KT 10SM CLR 10/04 A3020 RMK AO2 T00950040
KRMY 180734Z AUTO 22004KT 10SM CLR 09/04 A3020 RMK AO2 T00940040
KRMY 180714Z AUTO 22003KT 10SM CLR 10/04 A3020 RMK AO2 T00990040
KRMY 180653Z AUTO 21003KT 10SM CLR 10/04 A3020 RMK AO2 T01030040
KRMY 180634Z AUTO 21004KT 10SM CLR 11/04 A3019 RMK AO2 T01050040
KRMY 180614Z AUTO 22005KT 10SM CLR 11/04 A3019 RMK AO2 T01100040
KRMY 180553Z AUTO 23006KT 10SM CLR 11/04 A3019 RMK AO2 T01130040 10147 20113 401960065
KRMY 180534Z AUTO 22006KT 10SM CLR 12/04 A3019 RMK AO2 T01170041
KRMY 180514Z AUTO 22006KT 10SM CLR 12/04 A3019 RMK AO2 T01220042
KRMY 180453Z AUTO 22008KT 10SM CLR 12/04 A3019 RMK AO2 T01240042
KRMY 180434Z AUTO 22008KT 10SM CLR 12/05 A3019 RMK AO2 T01200045
KRMY 180414Z AUTO 21006KT 10SM CLR 12/05 A3019 RMK AO2 T01200045
KRMY 180353Z AUTO 21005KT 10SM CLR 12/05 A3019 RMK AO2 T01220046
KRMY 180334Z AUTO 20005KT 10SM CLR 12/05 A3019 RMK AO2 T01210047
KRMY 180314Z AUTO 20004KT 10SM CLR 12/05 A3020 RMK AO2 T01220047
KRMY 180253Z AUTO 21004KT 10SM CLR 13/05 A3020 RMK AO2 T01260047
KRMY 180234Z AUTO 22004KT 10SM CLR 13/05 A3019 RMK AO2 T01290048
KRMY 180214Z AUTO 21005KT 10SM CLR 13/05 A3019 RMK AO2 T01280048
KRMY 180153Z AUTO 20003KT 10SM CLR 13/05 A3018 RMK AO2 T01320047
KRMY 180134Z AUTO 21004KT 10SM CLR 14/05 A3018 RMK AO2 T01350047
KRMY 180114Z AUTO 20004KT 10SM CLR 14/05 A3017 RMK AO2 T01360047
KRMY 180053Z AUTO 20004KT 10SM CLR 14/05 A3017 RMK AO2 T01380046